Time;durP1;ratioP1;P1;durP2;ratioP2;P2;SDS_P1;SDS_P2;PMS_P1;PMS_P2;Temp;Humidity;BMP_temperature;BMP_pressure;BME280_temperature;BME280_humidity;BME280_pressure;Samples;Min_cycle;Max_cycle;Signal;HPM_P1;HPM_P2
2022/03/04 00:00:46;;;;;;;0.11;0.10;;;;;;;2.37;78.24;99182.64;460128;114;922600;-68
2022/03/04 00:01:50;;;;;;;0.45;0.20;;;;;;;2.37;78.26;99190.71;462219;113;930129;-70
2022/03/04 00:02:54;;;;;;;0.10;0.10;;;;;;;2.34;78.26;99189.23;461109;113;922919;-68
2022/03/04 00:03:58;;;;;;;0.10;0.10;;;;;;;2.33;78.29;99175.97;461868;114;930158;-69
2022/03/04 00:05:01;;;;;;;0.20;0.20;;;;;;;2.32;78.30;99191.27;460156;114;923203;-70
2022/03/04 00:06:05;;;;;;;0.11;0.11;;;;;;;2.31;78.28;99186.11;461420;114;923659;-69
2022/03/04 00:07:08;;;;;;;0.13;0.10;;;;;;;2.29;78.36;99194.37;463658;114;923198;-68
2022/03/04 00:08:12;;;;;;;0.29;0.20;;;;;;;2.30;78.37;99197.89;462830;114;922867;-68
2022/03/04 00:09:15;;;;;;;0.13;0.13;;;;;;;2.30;78.37;99187.13;462045;113;922835;-69
2022/03/04 00:10:19;;;;;;;0.06;0.06;;;;;;;2.31;78.28;99192.33;463276;114;922927;-69
2022/03/04 00:11:23;;;;;;;0.19;0.19;;;;;;;2.31;78.28;99192.33;461641;114;922872;-70
2022/03/04 00:12:26;;;;;;;0.20;0.20;;;;;;;2.32;78.15;99190.44;461459;113;930323;-69
2022/03/04 00:13:30;;;;;;;0.20;0.20;;;;;;;2.31;78.16;99188.80;451935;116;930197;-70
2022/03/04 00:14:34;;;;;;;0.18;0.17;;;;;;;2.32;78.27;99196.65;448878;117;922599;-69
2022/03/04 00:15:37;;;;;;;0.43;0.25;;;;;;;2.34;78.29;99191.09;444999;118;923259;-68
2022/03/04 00:16:40;;;;;;;0.20;0.20;;;;;;;2.36;78.25;99199.80;450372;115;930381;-68
2022/03/04 00:17:44;;;;;;;0.64;0.31;;;;;;;2.38;78.24;99200.41;453499;116;922980;-70
2022/03/04 00:19:06;;;;;;;0.15;0.15;;;;;;;2.39;78.25;99202.08;447912;116;923046;-70
2022/03/04 00:19:52;;;;;;;0.41;0.19;;;;;;;2.39;78.24;99197.54;446139;116;922622;-69
2022/03/04 00:20:56;;;;;;;0.40;0.14;;;;;;;2.39;78.29;99194.02;440909;118;922706;-69
2022/03/04 00:22:00;;;;;;;0.22;0.22;;;;;;;2.39;78.26;99194.85;440694;118;923002;-70
2022/03/04 00:23:03;;;;;;;0.20;0.20;;;;;;;2.39;78.27;99197.54;452346;115;922622;-68
2022/03/04 00:24:08;;;;;;;0.61;0.48;;;;;;;2.39;78.25;99202.92;443233;118;922874;-69
2022/03/04 00:25:12;;;;;;;0.38;0.38;;;;;;;2.40;78.25;99192.99;439123;118;922507;-69
2022/03/04 00:26:17;;;;;;;0.33;0.30;;;;;;;2.39;78.26;99192.16;446675;117;922951;-67
2022/03/04 00:27:20;;;;;;;0.30;0.30;;;;;;;2.40;78.40;99191.14;445039;117;922674;-66
2022/03/04 00:28:23;;;;;;;0.38;0.37;;;;;;;2.41;78.52;99183.91;448234;118;922743;-70
2022/03/04 00:29:26;;;;;;;0.33;0.26;;;;;;;2.42;78.64;99190.95;453993;116;923055;-69
2022/03/04 00:30:30;;;;;;;0.46;0.22;;;;;;;2.43;78.54;99189.89;448586;117;922534;-69
2022/03/04 00:31:35;;;;;;;0.84;0.22;;;;;;;2.42;78.38;99182.88;447302;117;922604;-70
2022/03/04 00:32:39;;;;;;;0.18;0.18;;;;;;;2.42;78.27;99188.26;444992;117;922669;-69
2022/03/04 00:33:42;;;;;;;0.32;0.31;;;;;;;2.42;78.34;99186.41;449161;116;923156;-70
2022/03/04 00:34:45;;;;;;;0.28;0.18;;;;;;;2.43;78.24;99190.73;445209;117;922674;-69
2022/03/04 00:35:49;;;;;;;0.26;0.16;;;;;;;2.43;78.10;99189.89;440772;118;922826;-73
2022/03/04 00:36:52;;;;;;;0.19;0.19;;;;;;;2.43;78.19;99187.20;450675;115;922613;-70
2022/03/04 00:37:55;;;;;;;0.23;0.22;;;;;;;2.42;78.08;99191.78;452292;116;922669;-67
2022/03/04 00:38:59;;;;;;;0.21;0.20;;;;;;;2.41;78.20;99192.81;439544;118;922687;-69
2022/03/04 00:40:05;;;;;;;0.20;0.20;;;;;;;2.41;78.07;99194.66;442494;118;922691;-69
2022/03/04 00:41:09;;;;;;;0.18;0.18;;;;;;;2.39;78.10;99192.16;449997;116;930259;-71
2022/03/04 00:42:13;;;;;;;0.31;0.20;;;;;;;2.39;78.31;99199.39;450559;117;922664;-69
2022/03/04 00:43:17;;;;;;;0.56;0.26;;;;;;;2.40;78.47;99201.06;448059;117;930228;-68
2022/03/04 00:44:20;;;;;;;0.19;0.15;;;;;;;2.43;78.53;99200.66;448368;117;923792;-68
2022/03/04 00:45:23;;;;;;;0.10;0.10;;;;;;;2.46;78.15;99205.66;449173;116;922821;-70
2022/03/04 00:46:27;;;;;;;0.26;0.24;;;;;;;2.50;78.45;99206.92;452280;116;930318;-70
2022/03/04 00:47:30;;;;;;;0.10;0.10;;;;;;;2.51;78.32;99195.14;452182;115;922620;-70
2022/03/04 00:48:34;;;;;;;0.20;0.20;;;;;;;2.53;78.25;99195.78;447315;117;930358;-70
2022/03/04 00:49:38;;;;;;;0.08;0.08;;;;;;;2.56;78.25;99197.23;446596;118;930228;-69
2022/03/04 00:50:41;;;;;;;0.32;0.13;;;;;;;2.58;78.26;99190.64;447612;117;922778;-72
2022/03/04 00:51:44;;;;;;;0.14;0.13;;;;;;;2.60;78.20;99196.64;441226;117;922714;-69
2022/03/04 00:52:47;;;;;;;0.36;0.22;;;;;;;2.63;78.12;99195.42;449296;116;922976;-69
2022/03/04 00:53:51;;;;;;;0.10;0.10;;;;;;;2.64;77.75;99197.09;453075;116;923038;-68
2022/03/04 00:54:54;;;;;;;0.24;0.22;;;;;;;2.63;77.97;99195.42;443248;117;922777;-69
2022/03/04 00:55:58;;;;;;;0.20;0.20;;;;;;;2.62;77.92;99191.06;448039;118;922427;-69
2022/03/04 00:57:01;;;;;;;0.21;0.10;;;;;;;2.61;77.94;99187.55;449055;117;922569;-70
2022/03/04 00:58:08;;;;;;;0.19;0.19;;;;;;;2.61;77.93;99198.30;448369;116;930266;-71
2022/03/04 00:59:11;;;;;;;0.07;0.06;;;;;;;2.63;77.92;99195.42;453300;116;930504;-69
2022/03/04 01:00:15;;;;;;;0.10;0.10;;;;;;;2.62;77.83;99197.28;443569;118;922996;-69
2022/03/04 01:01:18;;;;;;;0.10;0.10;;;;;;;2.63;77.92;99192.73;447218;117;930288;-69
2022/03/04 01:02:22;;;;;;;0.10;0.10;;;;;;;2.63;77.85;99196.26;445496;117;930207;-68
2022/03/04 01:03:25;;;;;;;0.10;0.10;;;;;;;2.66;78.01;99198.54;453086;116;922667;-69
2022/03/04 01:04:29;;;;;;;0.11;0.10;;;;;;;2.68;77.87;99199.19;451624;116;930259;-70
2022/03/04 01:05:32;;;;;;;0.42;0.30;;;;;;;2.69;77.78;99198.16;450088;115;922631;-71
2022/03/04 01:06:35;;;;;;;0.16;0.13;;;;;;;2.70;77.68;99193.61;461584;114;922602;-71
2022/03/04 01:07:39;;;;;;;0.17;0.15;;;;;;;2.70;77.73;99197.11;461912;114;922562;-68
2022/03/04 01:08:42;;;;;;;0.57;0.26;;;;;;;2.70;77.61;99194.41;460334;113;922635;-69
2022/03/04 01:09:46;;;;;;;0.34;0.20;;;;;;;2.71;77.60;99192.56;451957;116;922606;-69
2022/03/04 01:10:49;;;;;;;0.10;0.10;;;;;;;2.72;77.25;99194.23;453689;115;922581;-68
2022/03/04 01:11:53;;;;;;;0.20;0.20;;;;;;;2.71;77.46;99195.25;461297;113;922507;-71
2022/03/04 01:12:57;;;;;;;0.11;0.11;;;;;;;2.70;77.55;99193.61;461512;114;922642;-69
2022/03/04 01:14:00;;;;;;;0.21;0.21;;;;;;;2.71;77.56;99197.94;462355;114;928747;-71
2022/03/04 01:15:04;;;;;;;0.24;0.24;;;;;;;2.72;77.48;99200.44;460724;113;922859;-69
2022/03/04 01:16:08;;;;;;;0.42;0.29;;;;;;;2.73;77.44;99195.89;460903;113;922622;-71
2022/03/04 01:17:12;;;;;;;0.28;0.28;;;;;;;2.72;77.32;99199.61;460726;114;930274;-69
2022/03/04 01:18:15;;;;;;;0.37;0.24;;;;;;;2.70;77.34;99190.92;461326;114;922625;-68
2022/03/04 01:19:19;;;;;;;0.32;0.31;;;;;;;2.69;77.29;99192.78;461530;113;930191;-70
2022/03/04 01:20:23;;;;;;;0.45;0.34;;;;;;;2.68;77.44;99196.49;461375;114;922747;-69
2022/03/04 01:21:27;;;;;;;0.36;0.36;;;;;;;2.68;77.40;99195.66;461318;114;922708;-68
2022/03/04 01:22:30;;;;;;;0.32;0.32;;;;;;;2.67;77.43;99191.30;460929;113;922701;-70
2022/03/04 01:23:34;;;;;;;0.62;0.49;;;;;;;2.68;77.44;99198.35;460838;113;922787;-69
2022/03/04 01:24:38;;;;;;;0.79;0.50;;;;;;;2.68;77.46;99204.56;463325;114;922602;-69
2022/03/04 01:25:41;;;;;;;0.94;0.60;;;;;;;2.69;77.49;99200.86;463157;113;922598;-68
2022/03/04 01:26:45;;;;;;;0.68;0.51;;;;;;;2.70;77.48;99207.07;460446;113;922662;-70
2022/03/04 01:27:48;;;;;;;0.72;0.69;;;;;;;2.71;77.45;99208.70;461215;114;922554;-71
2022/03/04 01:28:51;;;;;;;0.65;0.65;;;;;;;2.73;77.43;99212.05;461793;114;922504;-69
2022/03/04 01:29:55;;;;;;;0.82;0.75;;;;;;;2.73;77.43;99206.66;460315;113;922673;-70
2022/03/04 01:30:58;;;;;;;1.33;0.92;;;;;;;2.73;77.37;99210.19;462203;114;922952;-70
2022/03/04 01:32:02;;;;;;;0.99;0.99;;;;;;;2.74;77.36;99206.47;461997;114;930211;-69
2022/03/04 01:33:05;;;;;;;1.25;1.13;;;;;;;2.73;77.30;99206.66;460920;114;930308;-70
2022/03/04 01:34:09;;;;;;;1.15;1.09;;;;;;;2.73;77.29;99210.19;460849;114;922613;-68
2022/03/04 01:35:12;;;;;;;1.43;1.12;;;;;;;2.72;77.23;99202.30;461462;114;922582;-70
2022/03/04 01:36:17;;;;;;;1.47;1.37;;;;;;;2.71;77.34;99197.94;462665;113;922572;-70
2022/03/04 01:37:20;;;;;;;1.70;1.57;;;;;;;2.70;77.23;99191.72;462169;114;922567;-68
2022/03/04 01:38:24;;;;;;;1.27;1.13;;;;;;;2.69;77.24;99194.64;461351;114;930674;-68
2022/03/04 01:39:27;;;;;;;1.75;1.65;;;;;;;2.67;77.28;99197.52;461162;114;922641;-69
2022/03/04 01:40:31;;;;;;;1.42;1.32;;;;;;;2.67;77.31;99191.30;461647;114;922776;-69
2022/03/04 01:41:34;;;;;;;1.59;1.49;;;;;;;2.65;77.24;99194.19;461277;114;922947;-70
2022/03/04 01:42:38;;;;;;;1.57;1.47;;;;;;;2.64;77.25;99191.71;461179;114;922634;-68
2022/03/04 01:43:42;;;;;;;1.51;1.41;;;;;;;2.62;77.31;99189.21;462024;114;922553;-69
2022/03/04 01:44:45;;;;;;;1.89;1.74;;;;;;;2.61;77.36;99187.55;462375;114;922604;-71
2022/03/04 01:45:48;;;;;;;2.11;1.62;;;;;;;2.60;77.46;99193.95;461125;114;930400;-68
2022/03/04 01:46:52;;;;;;;2.92;1.81;;;;;;;2.61;77.59;99189.40;461463;113;922865;-69
2022/03/04 01:47:56;;;;;;;1.73;1.63;;;;;;;2.61;77.53;99192.92;461914;114;922709;-70
2022/03/04 01:48:59;;;;;;;1.75;1.64;;;;;;;2.61;77.53;99190.23;461516;114;922702;-70
2022/03/04 01:50:03;;;;;;;1.76;1.66;;;;;;;2.61;77.58;99200.16;461666;114;922555;-68
2022/03/04 01:51:08;;;;;;;1.85;1.75;;;;;;;2.60;77.66;99193.95;460924;113;922873;-69
2022/03/04 01:52:11;;;;;;;1.99;1.58;;;;;;;2.60;77.64;99195.80;460728;114;922469;-68
2022/03/04 01:53:15;;;;;;;1.54;1.44;;;;;;;2.61;77.68;99195.61;461473;114;922667;-68
2022/03/04 01:54:18;;;;;;;1.31;1.20;;;;;;;2.61;77.75;99194.78;461870;114;923576;-69
2022/03/04 01:55:21;;;;;;;1.37;1.27;;;;;;;2.61;77.70;99192.92;461948;114;930235;-68
2022/03/04 01:56:25;;;;;;;1.47;1.06;;;;;;;2.62;77.64;99193.76;443604;117;922577;-68
2022/03/04 01:57:28;;;;;;;0.97;0.96;;;;;;;2.60;77.58;99193.95;460534;113;922539;-69
2022/03/04 01:58:32;;;;;;;1.59;1.49;;;;;;;2.59;77.65;99194.16;461227;114;922562;-69
2022/03/04 01:59:37;;;;;;;2.16;1.97;;;;;;;2.59;77.70;99194.16;460806;114;922583;-69
2022/03/04 02:00:40;;;;;;;1.78;1.67;;;;;;;2.58;77.69;99198.72;461640;114;922608;-68
2022/03/04 02:01:44;;;;;;;1.29;1.19;;;;;;;2.57;77.82;99197.05;462286;113;922781;-68
2022/03/04 02:02:47;;;;;;;1.18;1.08;;;;;;;2.57;77.74;99196.21;462249;114;930202;-67
2022/03/04 02:03:51;;;;;;;0.92;0.92;;;;;;;2.57;77.88;99197.05;462334;114;930176;-69
2022/03/04 02:04:55;;;;;;;1.20;1.12;;;;;;;2.58;77.82;99196.02;460889;113;922819;-70
2022/03/04 02:05:59;;;;;;;1.22;1.12;;;;;;;2.58;77.84;99196.02;458312;114;922613;-68
2022/03/04 02:07:02;;;;;;;1.71;1.53;;;;;;;2.58;77.82;99208.64;456288;115;922793;-68
2022/03/04 02:08:06;;;;;;;1.44;1.34;;;;;;;2.57;77.97;99202.42;457254;115;922862;-68
2022/03/04 02:09:09;;;;;;;1.27;1.20;;;;;;;2.59;77.95;99208.45;456948;114;930424;-70
2022/03/04 02:10:13;;;;;;;1.24;1.16;;;;;;;2.61;78.03;99202.85;461264;115;922405;-68
2022/03/04 02:11:17;;;;;;;1.10;1.01;;;;;;;2.62;78.04;99208.05;457486;115;922526;-70
2022/03/04 02:12:20;;;;;;;1.22;1.12;;;;;;;2.65;78.03;99206.80;455888;115;922757;-66
2022/03/04 02:13:23;;;;;;;1.89;1.64;;;;;;;2.65;77.91;99207.64;455628;115;922961;-68
2022/03/04 02:14:26;;;;;;;1.04;1.00;;;;;;;2.65;77.94;99201.42;457200;115;922552;-70
2022/03/04 02:15:30;;;;;;;1.22;1.10;;;;;;;2.65;77.81;99199.56;457840;114;923161;-69
2022/03/04 02:16:37;;;;;;;1.28;1.18;;;;;;;2.64;77.80;99192.55;456555;115;922579;-68
2022/03/04 02:17:40;;;;;;;1.19;1.13;;;;;;;2.63;77.80;99190.05;455574;115;930241;-69
2022/03/04 02:18:43;;;;;;;1.11;1.04;;;;;;;2.61;77.79;99189.40;440118;117;922747;-70
2022/03/04 02:19:52;;;;;;;1.00;0.96;;;;;;;2.59;77.83;99191.48;444316;119;922675;-70
2022/03/04 02:21:00;;;;;;;1.03;0.82;;;;;;;2.58;77.96;99201.41;436990;119;923561;-68
2022/03/04 02:22:05;;;;;;;0.94;0.91;;;;;;;2.56;77.86;99200.76;440412;117;923161;-68
2022/03/04 02:23:12;;;;;;;1.08;0.83;;;;;;;2.55;77.81;99200.95;438638;120;922940;-69
2022/03/04 02:24:14;;;;;;;0.47;0.44;;;;;;;2.54;77.92;99212.77;443639;119;922708;-67
2022/03/04 02:25:18;;;;;;;0.50;0.46;;;;;;;2.52;77.88;99212.95;439194;117;923182;-68
2022/03/04 02:26:21;;;;;;;0.37;0.37;;;;;;;2.50;77.89;99213.14;439967;119;923055;-69
2022/03/04 02:27:24;;;;;;;0.60;0.53;;;;;;;2.49;78.00;99219.54;438816;120;922660;-68
2022/03/04 02:28:27;;;;;;;0.40;0.40;;;;;;;2.48;77.98;99207.11;436724;120;922581;-70
2022/03/04 02:29:34;;;;;;;0.52;0.52;;;;;;;2.47;77.96;99204.64;447739;117;922581;-69
2022/03/04 02:30:37;;;;;;;0.30;0.30;;;;;;;2.47;78.04;99201.95;439201;119;922663;-69
2022/03/04 02:31:41;;;;;;;0.30;0.30;;;;;;;2.46;77.99;99206.50;440931;119;922968;-68
2022/03/04 02:32:44;;;;;;;0.54;0.29;;;;;;;2.46;77.96;99214.56;441700;119;922917;-70
2022/03/04 02:33:50;;;;;;;0.48;0.47;;;;;;;2.45;78.02;99209.37;443584;117;923270;-69
2022/03/04 02:34:53;;;;;;;0.76;0.30;;;;;;;2.45;78.02;99206.69;443098;119;922767;-68
2022/03/04 02:35:57;;;;;;;0.55;0.38;;;;;;;2.44;78.11;99213.92;439830;119;922777;-68
2022/03/04 02:37:00;;;;;;;0.23;0.21;;;;;;;2.44;78.13;99213.92;440459;118;922680;-69
2022/03/04 02:38:04;;;;;;;0.39;0.24;;;;;;;2.44;78.12;99211.23;450437;117;922738;-69
2022/03/04 02:39:07;;;;;;;0.25;0.25;;;;;;;2.44;78.16;99215.77;441778;120;922558;-70
2022/03/04 02:40:11;;;;;;;0.35;0.20;;;;;;;2.43;78.07;99216.80;445488;117;930437;-69
2022/03/04 02:41:15;;;;;;;0.56;0.25;;;;;;;2.42;78.13;99217.85;448893;117;923394;-69
2022/03/04 02:42:18;;;;;;;0.24;0.21;;;;;;;2.41;78.15;99208.11;448321;118;923034;-70
2022/03/04 02:43:21;;;;;;;0.35;0.35;;;;;;;2.41;78.25;99208.11;439612;118;922694;-67
2022/03/04 02:44:24;;;;;;;0.20;0.20;;;;;;;2.41;78.28;99208.95;443606;118;922640;-71
2022/03/04 02:45:28;;;;;;;0.17;0.17;;;;;;;2.41;78.21;99202.73;437867;119;922715;-68
2022/03/04 02:46:32;;;;;;;0.18;0.18;;;;;;;2.41;78.26;99197.35;439897;119;930270;-69
2022/03/04 02:47:36;;;;;;;0.84;0.10;;;;;;;2.41;78.30;99192.81;435128;120;922655;-69
2022/03/04 02:48:39;;;;;;;0.13;0.10;;;;;;;2.40;78.28;99191.14;450195;117;922779;-69
2022/03/04 02:49:42;;;;;;;0.34;0.12;;;;;;;2.41;78.39;99189.28;451748;117;922603;-68
2022/03/04 02:50:46;;;;;;;0.11;0.11;;;;;;;2.41;78.40;99187.42;448208;117;930126;-68
2022/03/04 02:51:49;;;;;;;0.14;0.14;;;;;;;2.40;78.42;99183.06;449349;116;922696;-66
2022/03/04 02:52:52;;;;;;;0.11;0.11;;;;;;;2.41;78.37;99181.21;448444;117;922708;-69
2022/03/04 02:53:55;;;;;;;0.14;0.10;;;;;;;2.40;78.35;99176.86;448853;117;922659;-69
2022/03/04 02:54:59;;;;;;;0.14;0.14;;;;;;;2.40;78.41;99176.86;445730;116;922806;-71
2022/03/04 02:56:02;;;;;;;0.10;0.10;;;;;;;2.38;78.49;99179.73;451898;117;922702;-68
2022/03/04 02:57:05;;;;;;;0.19;0.19;;;;;;;2.38;78.39;99181.59;443641;117;922617;-71
2022/03/04 02:58:08;;;;;;;0.18;0.18;;;;;;;2.36;78.41;99184.50;447075;117;923461;-70
2022/03/04 02:59:11;;;;;;;0.27;0.27;;;;;;;2.35;78.47;99185.52;451049;117;922663;-69
2022/03/04 03:00:17;;;;;;;0.12;0.10;;;;;;;2.36;78.58;99184.50;450944;117;922842;-69
2022/03/04 03:01:20;;;;;;;0.30;0.28;;;;;;;2.36;78.54;99192.56;447267;116;922587;-68
2022/03/04 03:02:23;;;;;;;1.04;0.35;;;;;;;2.37;78.54;99185.33;436620;120;922567;-68
2022/03/04 03:03:27;;;;;;;0.36;0.23;;;;;;;2.37;78.53;99194.20;444518;117;930653;-69
2022/03/04 03:04:31;;;;;;;0.66;0.58;;;;;;;2.38;78.52;99198.56;439709;119;924507;-71
2022/03/04 03:05:34;;;;;;;0.64;0.30;;;;;;;2.37;78.51;99196.09;441389;119;922523;-69
2022/03/04 03:06:37;;;;;;;0.80;0.61;;;;;;;2.38;78.47;99206.63;443696;118;922503;-71
2022/03/04 03:07:41;;;;;;;0.91;0.64;;;;;;;2.38;78.51;99205.80;462636;113;923054;-69
2022/03/04 03:08:44;;;;;;;0.66;0.55;;;;;;;2.39;78.44;99215.53;462252;113;922530;-70
2022/03/04 03:09:49;;;;;;;0.55;0.45;;;;;;;2.38;78.48;99216.55;462585;114;923046;-67
2022/03/04 03:10:52;;;;;;;0.69;0.68;;;;;;;2.38;78.50;99216.55;462367;114;922533;-69
2022/03/04 03:11:55;;;;;;;0.93;0.82;;;;;;;2.37;78.50;99214.92;462449;113;922990;-67
2022/03/04 03:12:59;;;;;;;0.93;0.66;;;;;;;2.37;78.46;99225.67;461894;114;923384;-70
2022/03/04 03:14:02;;;;;;;0.61;0.59;;;;;;;2.37;78.45;99220.30;460606;114;923180;-69
2022/03/04 03:15:06;;;;;;;0.62;0.59;;;;;;;2.37;78.40;99228.37;462979;113;922516;-71
2022/03/04 03:16:10;;;;;;;0.41;0.41;;;;;;;2.37;78.34;99229.17;460662;113;923140;-69
2022/03/04 03:17:13;;;;;;;0.44;0.37;;;;;;;2.37;78.35;99229.17;461441;114;922626;-70
2022/03/04 03:18:17;;;;;;;0.55;0.34;;;;;;;2.36;78.34;99238.30;461694;114;930234;-68
2022/03/04 03:19:20;;;;;;;0.35;0.24;;;;;;;2.37;78.43;99231.05;462357;113;922623;-70
2022/03/04 03:20:24;;;;;;;0.43;0.24;;;;;;;2.38;78.45;99238.91;461297;113;923259;-68
2022/03/04 03:21:27;;;;;;;0.14;0.14;;;;;;;2.40;78.43;99233.34;461318;114;922709;-68
2022/03/04 03:22:31;;;;;;;0.42;0.36;;;;;;;2.39;78.29;99234.36;460890;113;930398;-70
2022/03/04 03:23:34;;;;;;;0.29;0.29;;;;;;;2.37;78.25;99239.13;461577;114;922565;-67
2022/03/04 03:24:37;;;;;;;0.20;0.20;;;;;;;2.38;78.37;99230.00;461772;114;922655;-70
2022/03/04 03:25:41;;;;;;;0.23;0.20;;;;;;;2.38;78.36;99238.91;461645;114;922515;-71
2022/03/04 03:26:44;;;;;;;0.31;0.30;;;;;;;2.39;78.30;99235.20;461973;113;922803;-69
2022/03/04 03:27:47;;;;;;;0.20;0.20;;;;;;;2.37;78.26;99239.93;463483;114;923015;-69
2022/03/04 03:28:51;;;;;;;0.28;0.20;;;;;;;2.37;78.29;99239.13;462984;114;922693;-70
2022/03/04 03:29:54;;;;;;;0.37;0.19;;;;;;;2.37;78.29;99239.13;461714;113;922563;-70
2022/03/04 03:30:57;;;;;;;0.22;0.19;;;;;;;2.38;78.32;99240.77;461614;114;922543;-70
2022/03/04 03:32:00;;;;;;;0.36;0.30;;;;;;;2.38;78.31;99240.77;460639;114;923043;-69
2022/03/04 03:33:04;;;;;;;0.33;0.33;;;;;;;2.39;78.30;99237.05;462567;114;922548;-69
2022/03/04 03:34:07;;;;;;;0.25;0.24;;;;;;;2.39;78.27;99239.74;462554;114;927145;-68
2022/03/04 03:35:10;;;;;;;0.23;0.20;;;;;;;2.40;78.25;99244.10;461959;114;922827;-70
2022/03/04 03:36:15;;;;;;;0.29;0.29;;;;;;;2.40;78.25;99239.55;459959;114;922643;-69
2022/03/04 03:37:19;;;;;;;0.44;0.42;;;;;;;2.42;78.21;99239.37;462407;113;922646;-71
2022/03/04 03:38:23;;;;;;;0.48;0.30;;;;;;;2.41;78.13;99235.84;461987;114;922931;-69
2022/03/04 03:39:26;;;;;;;0.24;0.20;;;;;;;2.42;78.10;99239.37;461333;114;922565;-68
2022/03/04 03:40:29;;;;;;;0.44;0.30;;;;;;;2.41;78.07;99241.22;460972;114;922782;-68
2022/03/04 03:41:33;;;;;;;0.31;0.28;;;;;;;2.40;78.11;99239.55;461967;114;922498;-68
2022/03/04 03:42:37;;;;;;;0.29;0.29;;;;;;;2.41;78.08;99237.70;461188;114;922633;-70
2022/03/04 03:43:41;;;;;;;0.35;0.35;;;;;;;2.41;78.03;99235.01;462156;114;922534;-69
2022/03/04 03:44:44;;;;;;;0.36;0.30;;;;;;;2.40;77.99;99233.34;462292;114;922680;-71
2022/03/04 03:45:47;;;;;;;0.42;0.42;;;;;;;2.40;77.99;99233.34;461510;114;922460;-68
2022/03/04 03:46:51;;;;;;;0.29;0.29;;;;;;;2.39;78.03;99231.67;461845;114;922721;-71
2022/03/04 03:47:54;;;;;;;0.42;0.40;;;;;;;2.41;78.05;99224.25;461960;114;922572;-70
2022/03/04 03:48:58;;;;;;;0.44;0.44;;;;;;;2.42;78.13;99220.54;461927;114;922571;-70
2022/03/04 03:50:01;;;;;;;0.24;0.24;;;;;;;2.43;78.13;99223.02;462247;114;922484;-69
2022/03/04 03:51:04;;;;;;;0.30;0.30;;;;;;;2.44;78.08;99226.53;460190;113;923280;-69
2022/03/04 03:52:07;;;;;;;0.40;0.40;;;;;;;2.47;78.04;99226.16;461857;114;922710;-71
2022/03/04 03:53:11;;;;;;;1.89;1.79;;;;;;;2.47;77.98;99226.16;462334;114;923055;-70
2022/03/04 03:54:14;;;;;;;1.64;1.54;;;;;;;2.48;77.95;99225.14;459819;113;922891;-70
2022/03/04 03:55:18;;;;;;;1.74;1.64;;;;;;;2.48;77.89;99220.56;460008;113;922922;-69
2022/03/04 03:56:21;;;;;;;1.40;1.30;;;;;;;2.48;77.87;99220.56;461726;114;922922;-70
2022/03/04 03:57:25;;;;;;;0.96;0.96;;;;;;;2.49;77.88;99216.85;461895;114;922947;-69
2022/03/04 03:58:29;;;;;;;1.21;1.16;;;;;;;2.50;77.59;99223.90;460909;113;922509;-68
2022/03/04 03:59:33;;;;;;;1.06;1.01;;;;;;;2.50;77.79;99223.06;460672;114;922543;-68
2022/03/04 04:00:36;;;;;;;0.66;0.62;;;;;;;2.51;77.79;99228.26;460948;114;923114;-67
2022/03/04 04:01:40;;;;;;;0.50;0.50;;;;;;;2.52;77.76;99223.71;462610;113;922554;-70
2022/03/04 04:02:43;;;;;;;0.26;0.26;;;;;;;2.54;77.71;99231.59;462189;114;930148;-69
2022/03/04 04:03:46;;;;;;;0.21;0.21;;;;;;;2.54;77.59;99228.91;460773;114;930167;-70
2022/03/04 04:04:49;;;;;;;0.26;0.26;;;;;;;2.54;77.37;99231.59;461491;114;922623;-70
2022/03/04 04:05:53;;;;;;;0.23;0.23;;;;;;;2.54;77.28;99236.98;460633;114;922624;-70
2022/03/04 04:06:56;;;;;;;0.27;0.23;;;;;;;2.51;77.37;99241.71;461783;114;922782;-69
2022/03/04 04:07:59;;;;;;;0.27;0.20;;;;;;;2.50;77.32;99237.35;461952;114;930203;-67
2022/03/04 04:09:02;;;;;;;0.54;0.54;;;;;;;2.49;77.28;99237.54;462317;113;922653;-72
2022/03/04 04:10:06;;;;;;;0.41;0.41;;;;;;;2.48;77.27;99241.28;460799;114;922730;-70
2022/03/04 04:11:10;;;;;;;0.20;0.20;;;;;;;2.48;77.29;99236.70;461944;114;930291;-69
2022/03/04 04:12:13;;;;;;;0.33;0.20;;;;;;;2.50;77.39;99240.04;461218;113;930189;-69
2022/03/04 04:13:16;;;;;;;0.42;0.42;;;;;;;2.51;77.41;99247.09;462759;113;922575;-69
2022/03/04 04:14:19;;;;;;;0.42;0.37;;;;;;;2.53;77.24;99246.06;460345;114;922815;-70
2022/03/04 04:15:22;;;;;;;1.01;0.48;;;;;;;2.52;77.22;99242.55;460357;113;922725;-67
2022/03/04 04:16:26;;;;;;;0.43;0.43;;;;;;;2.51;77.24;99244.40;462526;113;922900;-70
2022/03/04 04:17:29;;;;;;;0.30;0.30;;;;;;;2.51;77.28;99244.40;462657;114;922666;-70
2022/03/04 04:18:32;;;;;;;0.44;0.37;;;;;;;2.50;77.18;99245.42;460902;114;922535;-69
2022/03/04 04:19:36;;;;;;;0.20;0.20;;;;;;;2.52;77.16;99242.55;459511;114;922587;-70
2022/03/04 04:20:39;;;;;;;0.44;0.44;;;;;;;2.52;77.12;99253.30;460871;114;922631;-70
2022/03/04 04:21:42;;;;;;;0.30;0.26;;;;;;;2.52;77.14;99242.55;462828;114;923105;-67
2022/03/04 04:22:47;;;;;;;0.29;0.29;;;;;;;2.54;77.17;99247.73;461470;114;923207;-69
2022/03/04 04:23:50;;;;;;;0.33;0.33;;;;;;;2.54;77.12;99248.54;462194;114;923126;-68
2022/03/04 04:24:53;;;;;;;0.36;0.36;;;;;;;2.55;77.16;99247.52;461430;114;922602;-68
2022/03/04 04:25:56;;;;;;;0.47;0.24;;;;;;;2.56;77.19;99248.36;461238;113;922549;-69
2022/03/04 04:27:00;;;;;;;0.79;0.30;;;;;;;2.58;77.14;99255.22;461652;114;922526;-71
2022/03/04 04:28:03;;;;;;;0.31;0.30;;;;;;;2.59;77.13;99254.20;461558;114;922467;-69
2022/03/04 04:29:07;;;;;;;0.31;0.31;;;;;;;2.58;76.99;99249.83;461317;114;930184;-71
2022/03/04 04:30:11;;;;;;;0.42;0.40;;;;;;;2.60;76.95;99241.55;453493;116;930234;-69
2022/03/04 04:31:14;;;;;;;0.40;0.40;;;;;;;2.60;76.83;99252.30;455712;114;930312;-71
2022/03/04 04:32:18;;;;;;;0.33;0.31;;;;;;;2.60;76.83;99260.38;461589;114;922759;-70
2022/03/04 04:33:21;;;;;;;0.32;0.29;;;;;;;2.60;76.91;99255.83;460283;113;930222;-70
2022/03/04 04:34:26;;;;;;;0.40;0.40;;;;;;;2.61;76.87;99254.81;460861;114;930180;-70
2022/03/04 04:35:29;;;;;;;0.51;0.51;;;;;;;2.62;76.88;99259.17;461530;114;922950;-69
2022/03/04 04:36:33;;;;;;;1.15;1.12;;;;;;;2.63;76.79;99263.53;462169;114;923242;-69
2022/03/04 04:37:36;;;;;;;0.66;0.66;;;;;;;2.63;76.76;99257.31;461613;114;922698;-71
2022/03/04 04:38:39;;;;;;;0.86;0.86;;;;;;;2.63;76.74;99260.84;461131;114;922901;-67
2022/03/04 04:39:43;;;;;;;0.80;0.80;;;;;;;2.64;76.71;99261.67;461349;114;922712;-68
2022/03/04 04:40:46;;;;;;;0.64;0.64;;;;;;;2.64;76.71;99254.44;461866;114;923720;-70
2022/03/04 04:41:49;;;;;;;0.76;0.76;;;;;;;2.65;76.78;99256.07;461790;114;922706;-68
2022/03/04 04:42:52;;;;;;;0.41;0.41;;;;;;;2.66;76.65;99257.73;461651;114;922613;-71
2022/03/04 04:43:56;;;;;;;0.49;0.49;;;;;;;2.67;76.58;99256.72;460690;113;922795;-69
2022/03/04 04:44:59;;;;;;;0.50;0.50;;;;;;;2.66;76.56;99255.05;461618;114;922551;-70
2022/03/04 04:46:04;;;;;;;0.40;0.40;;;;;;;2.67;76.57;99251.34;460772;114;922891;-69
2022/03/04 04:47:07;;;;;;;0.45;0.45;;;;;;;2.67;76.55;99256.72;460928;114;923120;-67
2022/03/04 04:48:11;;;;;;;0.37;0.37;;;;;;;2.66;76.42;99259.59;461507;114;930152;-69
2022/03/04 04:49:14;;;;;;;0.28;0.27;;;;;;;2.66;76.44;99251.52;460050;114;922649;-70
2022/03/04 04:50:17;;;;;;;0.24;0.24;;;;;;;2.67;76.51;99253.19;461278;114;930208;-70
2022/03/04 04:51:21;;;;;;;0.39;0.39;;;;;;;2.67;76.42;99258.58;460517;113;922641;-68
2022/03/04 04:52:24;;;;;;;0.34;0.34;;;;;;;2.67;76.44;99256.72;461452;114;922633;-69
2022/03/04 04:53:28;;;;;;;0.57;0.57;;;;;;;2.68;76.44;99260.24;461056;114;922944;-71
2022/03/04 04:54:31;;;;;;;0.73;0.73;;;;;;;2.69;76.45;99259.22;462156;114;922559;-71
2022/03/04 04:55:34;;;;;;;0.66;0.64;;;;;;;2.68;76.38;99247.63;461708;113;930401;-68
2022/03/04 04:56:38;;;;;;;1.12;1.12;;;;;;;2.68;76.33;99255.70;461145;114;923300;-70
2022/03/04 04:57:41;;;;;;;1.21;1.14;;;;;;;2.68;76.29;99254.86;460475;114;930238;-70
2022/03/04 04:58:44;;;;;;;0.66;0.66;;;;;;;2.68;76.28;99262.94;461817;114;922583;-69
2022/03/04 04:59:47;;;;;;;0.56;0.55;;;;;;;2.67;76.25;99267.48;461982;114;922556;-70